Main page
METAR-TAF:

METAR-TAF

Airports :

Deauville, France

Deauville – Normandie Airport

latitude: 49-21-55N, longitude: 000-09-16E, elevation: 146 m

Current weather observation

The report was made 19 minutes ago, at 07:00 UTC
Wind 10 kt from the West/Southwest, varying between Southwest and West
Temperature 14°C
Humidity 88%
Pressure 1020 hPa
Visibility 10 km or more

METAR: LFRG 190700Z AUTO 25010KT 220V280 9999 BKN014/// OVC021/// ///TCU 14/12 Q1020 TEMPO SHRA BKN015

Time: 09:19 (07:19 UTC)

Forecast

The report was made 2 hours and 19 minutes ago, at 05:00 UTC
Forecast valid from 19 at 06 UTC to 19 at 15 UTC
Wind 10 kt from the Southwest
Visibility 10 km or more
Broken clouds at a height of 2000 ft
Probability 30% :
Temporary
from 19 at 06 UTC to 19 at 10 UTC
Visibility: 5000 m
Broken clouds at a height of 1500 ft
rain showers
Becoming
from 19 at 11 UTC to 19 at 13 UTC
Wind 12 kt from the West/Northwest

TAF: LFRG 190500Z 1906/1915 23010KT 9999 BKN020 PROB30 TEMPO 1906/1910 5000 SHRA BKN015 BECMG 1911/1913 30012KT

Weather observations and forecasts of more than 4000 airports (METAR and TAF reports).

The available stations are represented by yellow and red dots on the map.

Hover mouse over dot to see the name of the station.

Then click to see weather observations and forecasts.

To change the map : click on the green buttons with a black cross to zoom in, on the green button with a dash to zoom out, or on the green arrows for adjacent maps.


METAR-TAF: